sensor_id;sensor_type;location;lat;lon;timestamp;P1;durP1;ratioP1;P2;durP2;ratioP2
27408;SDS011;20413;50.782;7.152;2022-10-16T00:01:09;3.08;;;2.15;;
27408;SDS011;20413;50.782;7.152;2022-10-16T00:03:36;1.73;;;1.55;;
27408;SDS011;20413;50.782;7.152;2022-10-16T00:06:02;3.72;;;1.90;;
27408;SDS011;20413;50.782;7.152;2022-10-16T00:08:28;1.48;;;1.38;;
27408;SDS011;20413;50.782;7.152;2022-10-16T00:10:59;2.05;;;1.33;;
27408;SDS011;20413;50.782;7.152;2022-10-16T00:13:25;2.67;;;1.30;;
27408;SDS011;20413;50.782;7.152;2022-10-16T00:15:52;6.80;;;1.40;;
27408;SDS011;20413;50.782;7.152;2022-10-16T00:18:20;2.33;;;1.48;;
27408;SDS011;20413;50.782;7.152;2022-10-16T00:20:46;1.73;;;1.42;;
27408;SDS011;20413;50.782;7.152;2022-10-16T00:23:12;2.03;;;1.77;;
27408;SDS011;20413;50.782;7.152;2022-10-16T00:25:38;1.95;;;1.50;;
27408;SDS011;20413;50.782;7.152;2022-10-16T00:28:04;4.32;;;1.40;;
27408;SDS011;20413;50.782;7.152;2022-10-16T00:30:30;2.38;;;1.20;;
27408;SDS011;20413;50.782;7.152;2022-10-16T00:32:56;2.08;;;1.33;;
27408;SDS011;20413;50.782;7.152;2022-10-16T00:35:22;1.85;;;1.23;;
27408;SDS011;20413;50.782;7.152;2022-10-16T00:37:48;1.63;;;1.38;;
27408;SDS011;20413;50.782;7.152;2022-10-16T00:40:14;1.38;;;1.27;;
27408;SDS011;20413;50.782;7.152;2022-10-16T00:42:40;2.60;;;1.40;;
27408;SDS011;20413;50.782;7.152;2022-10-16T00:45:07;1.17;;;1.15;;
27408;SDS011;20413;50.782;7.152;2022-10-16T00:47:34;1.33;;;1.20;;
27408;SDS011;20413;50.782;7.152;2022-10-16T00:50:05;1.63;;;1.50;;
27408;SDS011;20413;50.782;7.152;2022-10-16T00:52:32;1.77;;;1.50;;
27408;SDS011;20413;50.782;7.152;2022-10-16T00:54:59;1.50;;;1.30;;
27408;SDS011;20413;50.782;7.152;2022-10-16T00:57:25;1.63;;;1.38;;
27408;SDS011;20413;50.782;7.152;2022-10-16T00:59:52;2.15;;;1.40;;
27408;SDS011;20413;50.782;7.152;2022-10-16T01:02:19;1.30;;;1.20;;
27408;SDS011;20413;50.782;7.152;2022-10-16T01:04:50;2.28;;;2.08;;
27408;SDS011;20413;50.782;7.152;2022-10-16T01:07:30;2.45;;;1.75;;
27408;SDS011;20413;50.782;7.152;2022-10-16T01:12:36;5.43;;;1.48;;
27408;SDS011;20413;50.782;7.152;2022-10-16T01:15:26;1.58;;;1.38;;
27408;SDS011;20413;50.782;7.152;2022-10-16T01:25:32;4.38;;;1.20;;
27408;SDS011;20413;50.782;7.152;2022-10-16T01:28:01;1.60;;;1.50;;
27408;SDS011;20413;50.782;7.152;2022-10-16T01:30:30;1.42;;;1.33;;
27408;SDS011;20413;50.782;7.152;2022-10-16T01:33:00;2.30;;;1.50;;
27408;SDS011;20413;50.782;7.152;2022-10-16T01:35:30;2.95;;;1.40;;
27408;SDS011;20413;50.782;7.152;2022-10-16T01:38:03;1.65;;;1.55;;
27408;SDS011;20413;50.782;7.152;2022-10-16T01:40:30;3.38;;;1.65;;
27408;SDS011;20413;50.782;7.152;2022-10-16T01:43:05;1.83;;;1.73;;
27408;SDS011;20413;50.782;7.152;2022-10-16T01:45:33;1.67;;;1.58;;
27408;SDS011;20413;50.782;7.152;2022-10-16T01:48:01;2.17;;;1.33;;
27408;SDS011;20413;50.782;7.152;2022-10-16T01:50:29;1.70;;;1.60;;
27408;SDS011;20413;50.782;7.152;2022-10-16T01:52:56;3.45;;;1.40;;
27408;SDS011;20413;50.782;7.152;2022-10-16T01:55:28;1.95;;;1.60;;
27408;SDS011;20413;50.782;7.152;2022-10-16T01:57:55;4.43;;;1.83;;
27408;SDS011;20413;50.782;7.152;2022-10-16T02:00:22;4.13;;;1.55;;
27408;SDS011;20413;50.782;7.152;2022-10-16T02:02:49;2.25;;;1.80;;
27408;SDS011;20413;50.782;7.152;2022-10-16T02:05:20;2.90;;;1.70;;
27408;SDS011;20413;50.782;7.152;2022-10-16T02:07:48;1.90;;;1.60;;
27408;SDS011;20413;50.782;7.152;2022-10-16T02:10:14;2.42;;;1.65;;
27408;SDS011;20413;50.782;7.152;2022-10-16T02:12:41;1.45;;;1.35;;
27408;SDS011;20413;50.782;7.152;2022-10-16T02:15:08;1.50;;;1.40;;
27408;SDS011;20413;50.782;7.152;2022-10-16T02:17:34;2.20;;;1.75;;
27408;SDS011;20413;50.782;7.152;2022-10-16T02:20:00;1.73;;;1.58;;
27408;SDS011;20413;50.782;7.152;2022-10-16T02:22:28;2.28;;;1.33;;
27408;SDS011;20413;50.782;7.152;2022-10-16T02:30:12;2.65;;;1.50;;
27408;SDS011;20413;50.782;7.152;2022-10-16T02:32:39;1.60;;;1.48;;
27408;SDS011;20413;50.782;7.152;2022-10-16T02:35:07;3.05;;;1.40;;
27408;SDS011;20413;50.782;7.152;2022-10-16T02:37:33;1.42;;;1.08;;
27408;SDS011;20413;50.782;7.152;2022-10-16T02:40:00;1.02;;;0.85;;
27408;SDS011;20413;50.782;7.152;2022-10-16T02:42:34;3.00;;;1.00;;
27408;SDS011;20413;50.782;7.152;2022-10-16T02:45:00;3.65;;;1.33;;
27408;SDS011;20413;50.782;7.152;2022-10-16T02:47:26;4.57;;;1.05;;
27408;SDS011;20413;50.782;7.152;2022-10-16T02:49:52;0.98;;;0.80;;
27408;SDS011;20413;50.782;7.152;2022-10-16T02:52:18;0.63;;;0.63;;
27408;SDS011;20413;50.782;7.152;2022-10-16T02:54:44;2.78;;;0.80;;
27408;SDS011;20413;50.782;7.152;2022-10-16T02:57:10;2.88;;;0.70;;
27408;SDS011;20413;50.782;7.152;2022-10-16T02:59:36;3.70;;;0.70;;
27408;SDS011;20413;50.782;7.152;2022-10-16T03:02:03;2.58;;;0.70;;
27408;SDS011;20413;50.782;7.152;2022-10-16T03:04:28;2.40;;;0.90;;
27408;SDS011;20413;50.782;7.152;2022-10-16T03:06:54;2.95;;;1.00;;
27408;SDS011;20413;50.782;7.152;2022-10-16T03:09:21;4.03;;;0.88;;
27408;SDS011;20413;50.782;7.152;2022-10-16T03:11:47;0.80;;;0.80;;
27408;SDS011;20413;50.782;7.152;2022-10-16T03:14:13;1.73;;;0.80;;
27408;SDS011;20413;50.782;7.152;2022-10-16T03:16:39;0.70;;;0.70;;
27408;SDS011;20413;50.782;7.152;2022-10-16T03:19:05;0.75;;;0.57;;
27408;SDS011;20413;50.782;7.152;2022-10-16T03:21:31;1.67;;;0.60;;
27408;SDS011;20413;50.782;7.152;2022-10-16T03:23:57;0.90;;;0.60;;
27408;SDS011;20413;50.782;7.152;2022-10-16T03:26:23;0.68;;;0.52;;
27408;SDS011;20413;50.782;7.152;2022-10-16T03:28:49;1.73;;;0.40;;
27408;SDS011;20413;50.782;7.152;2022-10-16T03:31:15;7.13;;;0.90;;
27408;SDS011;20413;50.782;7.152;2022-10-16T03:33:41;3.42;;;0.60;;
27408;SDS011;20413;50.782;7.152;2022-10-16T03:36:07;0.85;;;0.50;;
27408;SDS011;20413;50.782;7.152;2022-10-16T03:38:33;1.38;;;0.50;;
27408;SDS011;20413;50.782;7.152;2022-10-16T03:40:59;0.57;;;0.57;;
27408;SDS011;20413;50.782;7.152;2022-10-16T03:43:25;1.00;;;0.73;;
27408;SDS011;20413;50.782;7.152;2022-10-16T03:45:51;0.57;;;0.40;;
27408;SDS011;20413;50.782;7.152;2022-10-16T03:48:17;1.42;;;0.50;;
27408;SDS011;20413;50.782;7.152;2022-10-16T03:50:43;0.47;;;0.40;;
27408;SDS011;20413;50.782;7.152;2022-10-16T03:53:09;4.63;;;0.60;;
27408;SDS011;20413;50.782;7.152;2022-10-16T03:55:35;0.55;;;0.55;;
27408;SDS011;20413;50.782;7.152;2022-10-16T03:58:02;0.68;;;0.68;;
27408;SDS011;20413;50.782;7.152;2022-10-16T04:00:28;0.50;;;0.50;;
27408;SDS011;20413;50.782;7.152;2022-10-16T04:02:54;1.48;;;0.70;;
27408;SDS011;20413;50.782;7.152;2022-10-16T04:05:20;0.85;;;0.75;;
27408;SDS011;20413;50.782;7.152;2022-10-16T04:07:46;2.20;;;0.50;;
27408;SDS011;20413;50.782;7.152;2022-10-16T04:10:12;1.58;;;0.50;;
27408;SDS011;20413;50.782;7.152;2022-10-16T04:12:38;0.70;;;0.70;;
27408;SDS011;20413;50.782;7.152;2022-10-16T04:15:04;0.70;;;0.70;;
27408;SDS011;20413;50.782;7.152;2022-10-16T04:17:30;2.58;;;0.82;;
27408;SDS011;20413;50.782;7.152;2022-10-16T04:19:56;3.10;;;0.68;;
27408;SDS011;20413;50.782;7.152;2022-10-16T04:22:22;1.50;;;0.60;;
27408;SDS011;20413;50.782;7.152;2022-10-16T04:24:48;3.63;;;0.60;;
27408;SDS011;20413;50.782;7.152;2022-10-16T04:27:14;0.90;;;0.70;;
27408;SDS011;20413;50.782;7.152;2022-10-16T04:29:40;0.65;;;0.52;;
27408;SDS011;20413;50.782;7.152;2022-10-16T04:32:07;0.90;;;0.63;;
27408;SDS011;20413;50.782;7.152;2022-10-16T04:34:33;1.17;;;0.85;;
27408;SDS011;20413;50.782;7.152;2022-10-16T04:36:59;1.85;;;0.52;;
27408;SDS011;20413;50.782;7.152;2022-10-16T04:39:25;1.95;;;1.10;;
27408;SDS011;20413;50.782;7.152;2022-10-16T04:41:51;1.67;;;0.50;;
27408;SDS011;20413;50.782;7.152;2022-10-16T04:44:17;4.35;;;0.70;;
27408;SDS011;20413;50.782;7.152;2022-10-16T04:46:43;1.98;;;0.70;;
27408;SDS011;20413;50.782;7.152;2022-10-16T04:49:09;0.68;;;0.68;;
27408;SDS011;20413;50.782;7.152;2022-10-16T04:51:35;5.88;;;0.70;;
27408;SDS011;20413;50.782;7.152;2022-10-16T04:54:01;4.68;;;0.63;;
27408;SDS011;20413;50.782;7.152;2022-10-16T04:56:27;0.60;;;0.60;;
27408;SDS011;20413;50.782;7.152;2022-10-16T04:58:54;3.40;;;0.60;;
27408;SDS011;20413;50.782;7.152;2022-10-16T05:01:20;1.50;;;0.70;;
27408;SDS011;20413;50.782;7.152;2022-10-16T05:03:46;1.27;;;0.80;;
27408;SDS011;20413;50.782;7.152;2022-10-16T05:06:12;1.30;;;0.82;;
27408;SDS011;20413;50.782;7.152;2022-10-16T05:08:38;1.98;;;0.80;;
27408;SDS011;20413;50.782;7.152;2022-10-16T05:11:04;1.02;;;0.82;;
27408;SDS011;20413;50.782;7.152;2022-10-16T05:13:30;2.45;;;1.05;;
27408;SDS011;20413;50.782;7.152;2022-10-16T05:15:56;1.60;;;0.93;;
27408;SDS011;20413;50.782;7.152;2022-10-16T05:18:22;2.80;;;1.30;;
27408;SDS011;20413;50.782;7.152;2022-10-16T05:20:48;1.25;;;1.05;;
27408;SDS011;20413;50.782;7.152;2022-10-16T05:23:14;1.13;;;1.00;;
27408;SDS011;20413;50.782;7.152;2022-10-16T05:25:40;2.15;;;0.90;;
27408;SDS011;20413;50.782;7.152;2022-10-16T05:28:06;1.10;;;0.88;;
27408;SDS011;20413;50.782;7.152;2022-10-16T05:30:32;5.18;;;1.00;;
27408;SDS011;20413;50.782;7.152;2022-10-16T05:32:58;1.20;;;0.88;;
27408;SDS011;20413;50.782;7.152;2022-10-16T05:35:24;2.35;;;0.90;;
27408;SDS011;20413;50.782;7.152;2022-10-16T05:37:50;0.85;;;0.82;;
27408;SDS011;20413;50.782;7.152;2022-10-16T05:40:16;4.65;;;1.15;;
27408;SDS011;20413;50.782;7.152;2022-10-16T05:42:42;4.53;;;1.10;;
27408;SDS011;20413;50.782;7.152;2022-10-16T05:45:09;2.90;;;1.05;;
27408;SDS011;20413;50.782;7.152;2022-10-16T05:47:36;1.08;;;1.02;;
27408;SDS011;20413;50.782;7.152;2022-10-16T05:50:03;2.38;;;1.00;;
27408;SDS011;20413;50.782;7.152;2022-10-16T05:52:29;4.10;;;1.10;;
27408;SDS011;20413;50.782;7.152;2022-10-16T05:54:55;3.83;;;1.65;;
27408;SDS011;20413;50.782;7.152;2022-10-16T05:57:21;2.38;;;1.20;;
27408;SDS011;20413;50.782;7.152;2022-10-16T05:59:47;1.23;;;1.00;;
27408;SDS011;20413;50.782;7.152;2022-10-16T06:02:13;2.65;;;1.40;;
27408;SDS011;20413;50.782;7.152;2022-10-16T06:04:39;2.42;;;1.30;;
27408;SDS011;20413;50.782;7.152;2022-10-16T06:07:05;5.05;;;1.73;;
27408;SDS011;20413;50.782;7.152;2022-10-16T06:09:31;1.92;;;1.05;;
27408;SDS011;20413;50.782;7.152;2022-10-16T06:11:57;1.30;;;1.20;;
27408;SDS011;20413;50.782;7.152;2022-10-16T06:14:23;1.30;;;1.20;;
27408;SDS011;20413;50.782;7.152;2022-10-16T06:16:50;3.05;;;1.30;;
27408;SDS011;20413;50.782;7.152;2022-10-16T06:19:16;3.03;;;1.00;;
27408;SDS011;20413;50.782;7.152;2022-10-16T06:21:43;1.20;;;1.10;;
27408;SDS011;20413;50.782;7.152;2022-10-16T06:24:09;1.05;;;1.05;;
27408;SDS011;20413;50.782;7.152;2022-10-16T06:26:35;2.63;;;1.27;;
27408;SDS011;20413;50.782;7.152;2022-10-16T06:29:01;2.75;;;1.13;;
27408;SDS011;20413;50.782;7.152;2022-10-16T06:31:28;2.38;;;1.30;;
27408;SDS011;20413;50.782;7.152;2022-10-16T06:33:56;1.30;;;1.20;;
27408;SDS011;20413;50.782;7.152;2022-10-16T06:36:22;3.58;;;1.20;;
27408;SDS011;20413;50.782;7.152;2022-10-16T06:38:48;4.53;;;1.15;;
27408;SDS011;20413;50.782;7.152;2022-10-16T06:41:16;2.13;;;1.17;;
27408;SDS011;20413;50.782;7.152;2022-10-16T06:43:42;2.55;;;1.08;;
27408;SDS011;20413;50.782;7.152;2022-10-16T06:46:10;1.33;;;0.93;;
27408;SDS011;20413;50.782;7.152;2022-10-16T06:48:36;2.05;;;1.20;;
27408;SDS011;20413;50.782;7.152;2022-10-16T06:51:04;1.52;;;1.27;;
27408;SDS011;20413;50.782;7.152;2022-10-16T06:53:31;2.45;;;1.08;;
27408;SDS011;20413;50.782;7.152;2022-10-16T06:55:57;4.43;;;1.70;;
27408;SDS011;20413;50.782;7.152;2022-10-16T06:58:23;2.25;;;1.38;;
27408;SDS011;20413;50.782;7.152;2022-10-16T07:00:54;1.65;;;1.20;;
27408;SDS011;20413;50.782;7.152;2022-10-16T07:03:21;1.33;;;1.23;;
27408;SDS011;20413;50.782;7.152;2022-10-16T07:05:47;1.65;;;1.23;;
27408;SDS011;20413;50.782;7.152;2022-10-16T07:08:13;0.95;;;0.90;;
27408;SDS011;20413;50.782;7.152;2022-10-16T07:10:39;1.30;;;1.20;;
27408;SDS011;20413;50.782;7.152;2022-10-16T07:13:05;1.42;;;1.33;;
27408;SDS011;20413;50.782;7.152;2022-10-16T07:15:32;1.95;;;1.30;;
27408;SDS011;20413;50.782;7.152;2022-10-16T07:17:58;1.48;;;1.25;;
27408;SDS011;20413;50.782;7.152;2022-10-16T07:20:24;2.42;;;1.05;;
27408;SDS011;20413;50.782;7.152;2022-10-16T07:22:50;4.03;;;1.00;;
27408;SDS011;20413;50.782;7.152;2022-10-16T07:25:17;1.45;;;1.10;;
27408;SDS011;20413;50.782;7.152;2022-10-16T07:27:43;1.80;;;1.00;;
27408;SDS011;20413;50.782;7.152;2022-10-16T07:30:09;1.55;;;1.17;;
27408;SDS011;20413;50.782;7.152;2022-10-16T07:32:35;2.25;;;1.00;;
27408;SDS011;20413;50.782;7.152;2022-10-16T07:35:01;1.20;;;1.10;;
27408;SDS011;20413;50.782;7.152;2022-10-16T07:37:27;2.13;;;1.05;;
27408;SDS011;20413;50.782;7.152;2022-10-16T07:39:53;1.70;;;0.85;;
27408;SDS011;20413;50.782;7.152;2022-10-16T07:42:19;1.33;;;1.00;;
27408;SDS011;20413;50.782;7.152;2022-10-16T07:44:45;1.17;;;0.85;;
27408;SDS011;20413;50.782;7.152;2022-10-16T07:47:11;1.52;;;1.05;;
27408;SDS011;20413;50.782;7.152;2022-10-16T07:49:37;3.55;;;1.35;;
27408;SDS011;20413;50.782;7.152;2022-10-16T07:52:03;3.70;;;1.00;;
27408;SDS011;20413;50.782;7.152;2022-10-16T07:54:29;0.90;;;0.90;;
27408;SDS011;20413;50.782;7.152;2022-10-16T07:56:55;1.20;;;0.90;;
27408;SDS011;20413;50.782;7.152;2022-10-16T07:59:21;3.53;;;0.60;;
27408;SDS011;20413;50.782;7.152;2022-10-16T08:01:48;0.80;;;0.52;;
27408;SDS011;20413;50.782;7.152;2022-10-16T08:04:14;0.60;;;0.60;;
27408;SDS011;20413;50.782;7.152;2022-10-16T08:06:40;1.13;;;0.80;;
27408;SDS011;20413;50.782;7.152;2022-10-16T08:09:07;2.05;;;0.68;;
27408;SDS011;20413;50.782;7.152;2022-10-16T08:11:51;0.60;;;0.60;;
27408;SDS011;20413;50.782;7.152;2022-10-16T08:14:35;1.02;;;0.70;;
27408;SDS011;20413;50.782;7.152;2022-10-16T08:17:01;2.47;;;0.90;;
27408;SDS011;20413;50.782;7.152;2022-10-16T08:19:28;0.50;;;0.50;;
27408;SDS011;20413;50.782;7.152;2022-10-16T08:21:56;1.35;;;0.77;;
27408;SDS011;20413;50.782;7.152;2022-10-16T08:24:22;0.60;;;0.60;;
27408;SDS011;20413;50.782;7.152;2022-10-16T08:26:48;4.72;;;1.02;;
27408;SDS011;20413;50.782;7.152;2022-10-16T08:29:14;1.65;;;0.80;;
27408;SDS011;20413;50.782;7.152;2022-10-16T08:31:40;2.25;;;0.80;;
27408;SDS011;20413;50.782;7.152;2022-10-16T08:34:06;0.60;;;0.60;;
27408;SDS011;20413;50.782;7.152;2022-10-16T08:36:32;2.42;;;1.00;;
27408;SDS011;20413;50.782;7.152;2022-10-16T08:38:58;0.50;;;0.50;;
27408;SDS011;20413;50.782;7.152;2022-10-16T08:44:20;2.95;;;1.25;;
27408;SDS011;20413;50.782;7.152;2022-10-16T08:49:15;2.25;;;0.73;;
27408;SDS011;20413;50.782;7.152;2022-10-16T08:51:41;3.75;;;1.00;;
27408;SDS011;20413;50.782;7.152;2022-10-16T08:56:56;0.63;;;0.60;;
27408;SDS011;20413;50.782;7.152;2022-10-16T08:59:22;0.80;;;0.65;;
27408;SDS011;20413;50.782;7.152;2022-10-16T09:01:49;0.60;;;0.60;;
27408;SDS011;20413;50.782;7.152;2022-10-16T09:14:43;1.63;;;0.40;;
27408;SDS011;20413;50.782;7.152;2022-10-16T09:20:10;0.95;;;0.50;;
27408;SDS011;20413;50.782;7.152;2022-10-16T09:22:39;2.00;;;0.68;;
27408;SDS011;20413;50.782;7.152;2022-10-16T09:25:15;1.38;;;0.63;;
27408;SDS011;20413;50.782;7.152;2022-10-16T09:27:45;0.43;;;0.40;;
27408;SDS011;20413;50.782;7.152;2022-10-16T09:32:38;0.73;;;0.50;;
27408;SDS011;20413;50.782;7.152;2022-10-16T09:35:09;1.52;;;0.40;;
27408;SDS011;20413;50.782;7.152;2022-10-16T09:37:36;1.20;;;0.43;;
27408;SDS011;20413;50.782;7.152;2022-10-16T09:40:02;1.50;;;0.30;;
27408;SDS011;20413;50.782;7.152;2022-10-16T09:42:32;1.30;;;0.50;;
27408;SDS011;20413;50.782;7.152;2022-10-16T09:45:00;0.50;;;0.50;;
27408;SDS011;20413;50.782;7.152;2022-10-16T09:47:27;0.55;;;0.40;;
27408;SDS011;20413;50.782;7.152;2022-10-16T09:50:01;0.82;;;0.70;;
27408;SDS011;20413;50.782;7.152;2022-10-16T09:52:30;3.42;;;0.50;;
27408;SDS011;20413;50.782;7.152;2022-10-16T09:55:12;2.60;;;0.60;;
27408;SDS011;20413;50.782;7.152;2022-10-16T09:57:48;0.80;;;0.60;;
27408;SDS011;20413;50.782;7.152;2022-10-16T10:00:18;0.40;;;0.30;;
27408;SDS011;20413;50.782;7.152;2022-10-16T10:02:44;0.77;;;0.40;;
27408;SDS011;20413;50.782;7.152;2022-10-16T10:07:53;0.45;;;0.20;;
27408;SDS011;20413;50.782;7.152;2022-10-16T10:10:26;1.58;;;0.40;;
27408;SDS011;20413;50.782;7.152;2022-10-16T10:12:53;0.40;;;0.22;;
27408;SDS011;20413;50.782;7.152;2022-10-16T10:15:20;2.72;;;0.20;;
27408;SDS011;20413;50.782;7.152;2022-10-16T10:17:50;1.55;;;0.40;;
27408;SDS011;20413;50.782;7.152;2022-10-16T10:22:43;0.50;;;0.20;;
27408;SDS011;20413;50.782;7.152;2022-10-16T10:40:39;0.52;;;0.20;;
27408;SDS011;20413;50.782;7.152;2022-10-16T10:42:53;1.55;;;0.32;;
27408;SDS011;20413;50.782;7.152;2022-10-16T10:50:30;0.55;;;0.40;;
27408;SDS011;20413;50.782;7.152;2022-10-16T11:03:27;0.15;;;0.15;;
27408;SDS011;20413;50.782;7.152;2022-10-16T11:06:05;0.90;;;0.20;;
27408;SDS011;20413;50.782;7.152;2022-10-16T11:08:43;0.10;;;0.10;;
27408;SDS011;20413;50.782;7.152;2022-10-16T11:13:54;2.42;;;0.20;;
27408;SDS011;20413;50.782;7.152;2022-10-16T11:16:28;1.65;;;0.38;;
27408;SDS011;20413;50.782;7.152;2022-10-16T11:21:21;0.22;;;0.10;;
27408;SDS011;20413;50.782;7.152;2022-10-16T11:23:55;3.03;;;0.30;;
27408;SDS011;20413;50.782;7.152;2022-10-16T11:26:25;0.40;;;0.30;;
27408;SDS011;20413;50.782;7.152;2022-10-16T11:28:53;1.13;;;0.75;;
27408;SDS011;20413;50.782;7.152;2022-10-16T11:36:26;0.20;;;0.10;;
27408;SDS011;20413;50.782;7.152;2022-10-16T11:46:24;3.15;;;0.10;;
27408;SDS011;20413;50.782;7.152;2022-10-16T11:56:29;0.10;;;0.10;;
27408;SDS011;20413;50.782;7.152;2022-10-16T12:01:42;0.20;;;0.20;;
27408;SDS011;20413;50.782;7.152;2022-10-16T12:04:30;3.10;;;0.40;;
27408;SDS011;20413;50.782;7.152;2022-10-16T12:07:02;0.82;;;0.17;;
27408;SDS011;20413;50.782;7.152;2022-10-16T12:09:31;0.88;;;0.30;;
27408;SDS011;20413;50.782;7.152;2022-10-16T12:11:58;0.53;;;0.20;;
27408;SDS011;20413;50.782;7.152;2022-10-16T12:19:19;0.63;;;0.20;;
27408;SDS011;20413;50.782;7.152;2022-10-16T12:21:46;0.47;;;0.20;;
27408;SDS011;20413;50.782;7.152;2022-10-16T12:24:22;2.40;;;0.20;;
27408;SDS011;20413;50.782;7.152;2022-10-16T12:26:50;2.10;;;0.38;;
27408;SDS011;20413;50.782;7.152;2022-10-16T12:29:22;1.23;;;0.10;;
27408;SDS011;20413;50.782;7.152;2022-10-16T12:31:49;1.35;;;0.13;;
27408;SDS011;20413;50.782;7.152;2022-10-16T12:36:47;0.47;;;0.20;;
27408;SDS011;20413;50.782;7.152;2022-10-16T12:39:20;0.60;;;0.22;;
27408;SDS011;20413;50.782;7.152;2022-10-16T12:41:46;0.30;;;0.20;;
27408;SDS011;20413;50.782;7.152;2022-10-16T12:44:23;3.95;;;0.20;;
27408;SDS011;20413;50.782;7.152;2022-10-16T12:46:51;0.35;;;0.10;;
27408;SDS011;20413;50.782;7.152;2022-10-16T12:49:36;0.57;;;0.20;;
27408;SDS011;20413;50.782;7.152;2022-10-16T12:52:04;0.13;;;0.10;;
27408;SDS011;20413;50.782;7.152;2022-10-16T12:54:31;0.28;;;0.20;;
27408;SDS011;20413;50.782;7.152;2022-10-16T12:59:51;0.68;;;0.20;;
27408;SDS011;20413;50.782;7.152;2022-10-16T13:07:50;0.20;;;0.10;;
27408;SDS011;20413;50.782;7.152;2022-10-16T13:12:53;0.20;;;0.10;;
27408;SDS011;20413;50.782;7.152;2022-10-16T13:15:29;0.40;;;0.20;;
27408;SDS011;20413;50.782;7.152;2022-10-16T13:18:12;7.13;;;0.20;;
27408;SDS011;20413;50.782;7.152;2022-10-16T13:20:56;0.85;;;0.25;;
27408;SDS011;20413;50.782;7.152;2022-10-16T13:26:24;1.27;;;0.20;;
27408;SDS011;20413;50.782;7.152;2022-10-16T13:28:57;1.17;;;0.20;;
27408;SDS011;20413;50.782;7.152;2022-10-16T13:31:24;0.73;;;0.10;;
27408;SDS011;20413;50.782;7.152;2022-10-16T13:33:51;2.58;;;0.30;;
27408;SDS011;20413;50.782;7.152;2022-10-16T13:36:26;0.20;;;0.20;;
27408;SDS011;20413;50.782;7.152;2022-10-16T13:41:37;1.52;;;0.10;;
27408;SDS011;20413;50.782;7.152;2022-10-16T13:44:03;0.13;;;0.10;;
27408;SDS011;20413;50.782;7.152;2022-10-16T13:46:29;0.22;;;0.10;;
27408;SDS011;20413;50.782;7.152;2022-10-16T13:49:10;0.25;;;0.20;;
27408;SDS011;20413;50.782;7.152;2022-10-16T13:51:37;1.15;;;0.22;;
27408;SDS011;20413;50.782;7.152;2022-10-16T13:54:03;1.35;;;0.20;;
27408;SDS011;20413;50.782;7.152;2022-10-16T13:56:29;1.45;;;0.20;;
27408;SDS011;20413;50.782;7.152;2022-10-16T13:58:59;1.55;;;0.30;;
27408;SDS011;20413;50.782;7.152;2022-10-16T14:01:33;0.10;;;0.10;;
27408;SDS011;20413;50.782;7.152;2022-10-16T14:04:09;0.25;;;0.10;;
27408;SDS011;20413;50.782;7.152;2022-10-16T14:06:40;0.10;;;0.10;;
27408;SDS011;20413;50.782;7.152;2022-10-16T14:09:07;0.10;;;0.10;;
27408;SDS011;20413;50.782;7.152;2022-10-16T14:11:45;0.15;;;0.13;;
27408;SDS011;20413;50.782;7.152;2022-10-16T14:16:37;0.03;;;0.03;;
27408;SDS011;20413;50.782;7.152;2022-10-16T14:19:06;0.35;;;0.20;;
27408;SDS011;20413;50.782;7.152;2022-10-16T14:21:34;0.85;;;0.20;;
27408;SDS011;20413;50.782;7.152;2022-10-16T14:24:10;0.20;;;0.20;;
27408;SDS011;20413;50.782;7.152;2022-10-16T14:26:40;0.22;;;0.22;;
27408;SDS011;20413;50.782;7.152;2022-10-16T14:29:11;1.55;;;0.30;;
27408;SDS011;20413;50.782;7.152;2022-10-16T14:31:38;0.43;;;0.35;;
27408;SDS011;20413;50.782;7.152;2022-10-16T14:34:05;1.70;;;0.43;;
27408;SDS011;20413;50.782;7.152;2022-10-16T14:36:49;1.15;;;0.20;;
27408;SDS011;20413;50.782;7.152;2022-10-16T14:39:22;1.00;;;0.20;;
27408;SDS011;20413;50.782;7.152;2022-10-16T14:41:50;0.90;;;0.40;;
27408;SDS011;20413;50.782;7.152;2022-10-16T14:44:17;0.10;;;0.10;;
27408;SDS011;20413;50.782;7.152;2022-10-16T14:46:43;1.75;;;0.50;;
27408;SDS011;20413;50.782;7.152;2022-10-16T14:51:39;0.20;;;0.20;;
27408;SDS011;20413;50.782;7.152;2022-10-16T14:54:07;0.55;;;0.30;;
27408;SDS011;20413;50.782;7.152;2022-10-16T14:56:35;0.30;;;0.20;;
27408;SDS011;20413;50.782;7.152;2022-10-16T14:59:09;0.30;;;0.20;;
27408;SDS011;20413;50.782;7.152;2022-10-16T15:01:38;1.42;;;0.45;;
27408;SDS011;20413;50.782;7.152;2022-10-16T15:04:04;0.40;;;0.40;;
27408;SDS011;20413;50.782;7.152;2022-10-16T15:06:30;0.60;;;0.52;;
27408;SDS011;20413;50.782;7.152;2022-10-16T15:08:56;0.75;;;0.35;;
27408;SDS011;20413;50.782;7.152;2022-10-16T15:11:22;0.60;;;0.52;;
27408;SDS011;20413;50.782;7.152;2022-10-16T15:13:51;0.40;;;0.40;;
27408;SDS011;20413;50.782;7.152;2022-10-16T15:16:17;0.40;;;0.40;;
27408;SDS011;20413;50.782;7.152;2022-10-16T15:18:43;2.13;;;0.40;;
27408;SDS011;20413;50.782;7.152;2022-10-16T15:21:29;3.47;;;0.40;;
27408;SDS011;20413;50.782;7.152;2022-10-16T15:23:56;0.40;;;0.40;;
27408;SDS011;20413;50.782;7.152;2022-10-16T15:26:23;0.38;;;0.30;;
27408;SDS011;20413;50.782;7.152;2022-10-16T15:28:49;1.23;;;0.57;;
27408;SDS011;20413;50.782;7.152;2022-10-16T15:31:15;4.10;;;0.50;;
27408;SDS011;20413;50.782;7.152;2022-10-16T15:33:41;2.65;;;0.30;;
27408;SDS011;20413;50.782;7.152;2022-10-16T15:36:07;0.70;;;0.40;;
27408;SDS011;20413;50.782;7.152;2022-10-16T15:38:33;0.30;;;0.30;;
27408;SDS011;20413;50.782;7.152;2022-10-16T15:40:59;1.63;;;0.47;;
27408;SDS011;20413;50.782;7.152;2022-10-16T15:43:25;1.20;;;0.20;;
27408;SDS011;20413;50.782;7.152;2022-10-16T15:48:28;0.88;;;0.35;;
27408;SDS011;20413;50.782;7.152;2022-10-16T15:50:55;1.60;;;0.40;;
27408;SDS011;20413;50.782;7.152;2022-10-16T15:53:21;2.92;;;0.50;;
27408;SDS011;20413;50.782;7.152;2022-10-16T15:55:47;0.40;;;0.40;;
27408;SDS011;20413;50.782;7.152;2022-10-16T15:58:13;1.75;;;0.45;;
27408;SDS011;20413;50.782;7.152;2022-10-16T16:00:39;0.40;;;0.30;;
27408;SDS011;20413;50.782;7.152;2022-10-16T16:03:05;0.80;;;0.47;;
27408;SDS011;20413;50.782;7.152;2022-10-16T16:05:31;1.85;;;0.43;;
27408;SDS011;20413;50.782;7.152;2022-10-16T16:07:58;0.55;;;0.50;;
27408;SDS011;20413;50.782;7.152;2022-10-16T16:10:24;1.75;;;0.30;;
27408;SDS011;20413;50.782;7.152;2022-10-16T16:12:50;1.00;;;0.50;;
27408;SDS011;20413;50.782;7.152;2022-10-16T16:15:18;1.25;;;0.60;;
27408;SDS011;20413;50.782;7.152;2022-10-16T16:17:45;0.60;;;0.50;;
27408;SDS011;20413;50.782;7.152;2022-10-16T16:20:11;2.30;;;0.47;;
27408;SDS011;20413;50.782;7.152;2022-10-16T16:22:37;1.15;;;0.55;;
27408;SDS011;20413;50.782;7.152;2022-10-16T16:25:03;1.95;;;0.40;;
27408;SDS011;20413;50.782;7.152;2022-10-16T16:27:30;1.17;;;0.43;;
27408;SDS011;20413;50.782;7.152;2022-10-16T16:32:24;2.28;;;0.68;;
27408;SDS011;20413;50.782;7.152;2022-10-16T16:34:50;0.82;;;0.68;;
27408;SDS011;20413;50.782;7.152;2022-10-16T16:37:16;2.38;;;0.40;;
27408;SDS011;20413;50.782;7.152;2022-10-16T16:39:42;0.82;;;0.52;;
27408;SDS011;20413;50.782;7.152;2022-10-16T16:42:08;1.33;;;0.70;;
27408;SDS011;20413;50.782;7.152;2022-10-16T16:44:35;0.60;;;0.40;;
27408;SDS011;20413;50.782;7.152;2022-10-16T16:47:01;0.60;;;0.60;;
27408;SDS011;20413;50.782;7.152;2022-10-16T16:49:27;0.95;;;0.60;;
27408;SDS011;20413;50.782;7.152;2022-10-16T16:51:53;0.95;;;0.63;;
27408;SDS011;20413;50.782;7.152;2022-10-16T16:54:19;0.60;;;0.60;;
27408;SDS011;20413;50.782;7.152;2022-10-16T16:56:45;0.57;;;0.57;;
27408;SDS011;20413;50.782;7.152;2022-10-16T16:59:13;1.08;;;0.60;;
27408;SDS011;20413;50.782;7.152;2022-10-16T17:01:39;1.33;;;0.77;;
27408;SDS011;20413;50.782;7.152;2022-10-16T17:04:05;2.92;;;0.95;;
27408;SDS011;20413;50.782;7.152;2022-10-16T17:06:32;0.73;;;0.55;;
27408;SDS011;20413;50.782;7.152;2022-10-16T17:08:58;3.70;;;1.20;;